sensor_id;sensor_type;location;lat;lon;timestamp;P1;durP1;ratioP1;P2;durP2;ratioP2
72125;SDS011;59999;51.676;22.650;2023-05-23T00:02:17;11.83;;;6.63;;
72125;SDS011;59999;51.676;22.650;2023-05-23T00:04:43;12.05;;;6.57;;
72125;SDS011;59999;51.676;22.650;2023-05-23T00:07:09;12.60;;;6.47;;
72125;SDS011;59999;51.676;22.650;2023-05-23T00:09:35;12.43;;;6.22;;
72125;SDS011;59999;51.676;22.650;2023-05-23T00:12:01;13.50;;;6.63;;
72125;SDS011;59999;51.676;22.650;2023-05-23T00:14:27;10.65;;;6.03;;
72125;SDS011;59999;51.676;22.650;2023-05-23T00:16:58;11.68;;;6.18;;
72125;SDS011;59999;51.676;22.650;2023-05-23T00:19:25;12.27;;;6.22;;
72125;SDS011;59999;51.676;22.650;2023-05-23T00:21:51;11.37;;;6.30;;
72125;SDS011;59999;51.676;22.650;2023-05-23T00:24:21;11.85;;;6.68;;
72125;SDS011;59999;51.676;22.650;2023-05-23T00:26:46;14.50;;;6.43;;
72125;SDS011;59999;51.676;22.650;2023-05-23T00:29:13;10.98;;;6.13;;
72125;SDS011;59999;51.676;22.650;2023-05-23T00:31:43;11.93;;;6.53;;
72125;SDS011;59999;51.676;22.650;2023-05-23T00:34:13;13.25;;;6.38;;
72125;SDS011;59999;51.676;22.650;2023-05-23T00:36:42;11.45;;;6.45;;
72125;SDS011;59999;51.676;22.650;2023-05-23T00:39:08;14.52;;;6.18;;
72125;SDS011;59999;51.676;22.650;2023-05-23T00:41:41;12.15;;;6.38;;
72125;SDS011;59999;51.676;22.650;2023-05-23T00:44:07;11.27;;;6.23;;
72125;SDS011;59999;51.676;22.650;2023-05-23T00:46:34;12.15;;;6.75;;
72125;SDS011;59999;51.676;22.650;2023-05-23T00:49:00;13.98;;;6.40;;
72125;SDS011;59999;51.676;22.650;2023-05-23T00:51:26;14.00;;;7.03;;
72125;SDS011;59999;51.676;22.650;2023-05-23T00:53:53;13.57;;;7.20;;
72125;SDS011;59999;51.676;22.650;2023-05-23T00:56:19;13.87;;;7.40;;
72125;SDS011;59999;51.676;22.650;2023-05-23T00:58:45;11.57;;;6.82;;
72125;SDS011;59999;51.676;22.650;2023-05-23T01:01:12;13.85;;;7.38;;
72125;SDS011;59999;51.676;22.650;2023-05-23T01:03:40;13.07;;;7.10;;
72125;SDS011;59999;51.676;22.650;2023-05-23T01:06:05;13.50;;;7.80;;
72125;SDS011;59999;51.676;22.650;2023-05-23T01:08:32;12.35;;;7.50;;
72125;SDS011;59999;51.676;22.650;2023-05-23T01:10:58;14.52;;;7.55;;
72125;SDS011;59999;51.676;22.650;2023-05-23T01:13:37;12.70;;;7.20;;
72125;SDS011;59999;51.676;22.650;2023-05-23T01:16:17;12.75;;;6.82;;
72125;SDS011;59999;51.676;22.650;2023-05-23T01:19:04;13.18;;;6.95;;
72125;SDS011;59999;51.676;22.650;2023-05-23T01:21:42;13.60;;;6.72;;
72125;SDS011;59999;51.676;22.650;2023-05-23T01:30:10;14.45;;;6.75;;
72125;SDS011;59999;51.676;22.650;2023-05-23T01:32:38;11.80;;;6.30;;
72125;SDS011;59999;51.676;22.650;2023-05-23T01:35:05;13.45;;;6.68;;
72125;SDS011;59999;51.676;22.650;2023-05-23T01:37:31;13.23;;;6.75;;
72125;SDS011;59999;51.676;22.650;2023-05-23T01:39:58;10.53;;;6.07;;
72125;SDS011;59999;51.676;22.650;2023-05-23T01:42:23;11.63;;;6.03;;
72125;SDS011;59999;51.676;22.650;2023-05-23T01:44:50;12.13;;;6.15;;
72125;SDS011;59999;51.676;22.650;2023-05-23T01:47:16;13.82;;;6.35;;
72125;SDS011;59999;51.676;22.650;2023-05-23T01:49:42;14.00;;;6.33;;
72125;SDS011;59999;51.676;22.650;2023-05-23T01:52:10;13.35;;;6.05;;
72125;SDS011;59999;51.676;22.650;2023-05-23T01:54:37;11.20;;;5.68;;
72125;SDS011;59999;51.676;22.650;2023-05-23T01:57:06;10.40;;;5.82;;
72125;SDS011;59999;51.676;22.650;2023-05-23T01:59:33;11.05;;;5.70;;
72125;SDS011;59999;51.676;22.650;2023-05-23T02:01:59;14.17;;;6.63;;
72125;SDS011;59999;51.676;22.650;2023-05-23T02:04:26;14.07;;;7.30;;
72125;SDS011;59999;51.676;22.650;2023-05-23T02:06:52;14.50;;;6.85;;
72125;SDS011;59999;51.676;22.650;2023-05-23T02:09:18;16.48;;;7.20;;
72125;SDS011;59999;51.676;22.650;2023-05-23T02:11:44;14.50;;;7.77;;
72125;SDS011;59999;51.676;22.650;2023-05-23T02:14:10;13.70;;;6.68;;
72125;SDS011;59999;51.676;22.650;2023-05-23T02:16:37;12.35;;;6.93;;
72125;SDS011;59999;51.676;22.650;2023-05-23T02:19:03;13.18;;;6.90;;
72125;SDS011;59999;51.676;22.650;2023-05-23T02:21:29;13.17;;;6.50;;
72125;SDS011;59999;51.676;22.650;2023-05-23T02:23:56;12.98;;;6.25;;
72125;SDS011;59999;51.676;22.650;2023-05-23T02:26:22;13.63;;;6.70;;
72125;SDS011;59999;51.676;22.650;2023-05-23T02:28:48;14.23;;;6.83;;
72125;SDS011;59999;51.676;22.650;2023-05-23T02:31:13;12.10;;;6.53;;
72125;SDS011;59999;51.676;22.650;2023-05-23T02:33:39;11.38;;;6.15;;
72125;SDS011;59999;51.676;22.650;2023-05-23T02:36:05;12.73;;;6.50;;
72125;SDS011;59999;51.676;22.650;2023-05-23T02:38:32;13.85;;;6.20;;
72125;SDS011;59999;51.676;22.650;2023-05-23T02:40:57;14.07;;;6.68;;
72125;SDS011;59999;51.676;22.650;2023-05-23T02:43:24;11.73;;;6.27;;
72125;SDS011;59999;51.676;22.650;2023-05-23T02:45:50;11.50;;;5.70;;
72125;SDS011;59999;51.676;22.650;2023-05-23T02:48:16;11.68;;;5.90;;
72125;SDS011;59999;51.676;22.650;2023-05-23T02:50:42;10.87;;;6.13;;
72125;SDS011;59999;51.676;22.650;2023-05-23T02:53:08;12.18;;;6.05;;
72125;SDS011;59999;51.676;22.650;2023-05-23T02:55:34;10.27;;;5.70;;
72125;SDS011;59999;51.676;22.650;2023-05-23T02:58:00;11.68;;;6.18;;
72125;SDS011;59999;51.676;22.650;2023-05-23T03:00:26;12.70;;;6.80;;
72125;SDS011;59999;51.676;22.650;2023-05-23T03:02:52;12.13;;;6.55;;
72125;SDS011;59999;51.676;22.650;2023-05-23T03:05:18;14.30;;;6.70;;
72125;SDS011;59999;51.676;22.650;2023-05-23T03:07:44;13.32;;;6.53;;
72125;SDS011;59999;51.676;22.650;2023-05-23T03:10:10;13.60;;;6.80;;
72125;SDS011;59999;51.676;22.650;2023-05-23T03:12:36;13.37;;;6.87;;
72125;SDS011;59999;51.676;22.650;2023-05-23T03:15:02;11.52;;;6.47;;
72125;SDS011;59999;51.676;22.650;2023-05-23T03:17:28;13.10;;;6.53;;
72125;SDS011;59999;51.676;22.650;2023-05-23T03:19:54;12.88;;;6.97;;
72125;SDS011;59999;51.676;22.650;2023-05-23T03:22:20;11.98;;;6.93;;
72125;SDS011;59999;51.676;22.650;2023-05-23T03:24:48;13.13;;;6.93;;
72125;SDS011;59999;51.676;22.650;2023-05-23T03:27:14;12.98;;;6.75;;
72125;SDS011;59999;51.676;22.650;2023-05-23T03:29:40;12.82;;;7.13;;
72125;SDS011;59999;51.676;22.650;2023-05-23T03:32:06;11.82;;;7.00;;
72125;SDS011;59999;51.676;22.650;2023-05-23T03:34:32;15.87;;;7.13;;
72125;SDS011;59999;51.676;22.650;2023-05-23T03:36:58;12.65;;;6.65;;
72125;SDS011;59999;51.676;22.650;2023-05-23T03:39:24;12.73;;;7.00;;
72125;SDS011;59999;51.676;22.650;2023-05-23T03:41:51;13.35;;;6.90;;
72125;SDS011;59999;51.676;22.650;2023-05-23T03:44:16;12.97;;;7.10;;
72125;SDS011;59999;51.676;22.650;2023-05-23T03:46:42;14.23;;;6.97;;
72125;SDS011;59999;51.676;22.650;2023-05-23T03:49:08;12.43;;;7.25;;
72125;SDS011;59999;51.676;22.650;2023-05-23T03:51:34;15.63;;;7.17;;
72125;SDS011;59999;51.676;22.650;2023-05-23T03:54:00;11.90;;;7.40;;
72125;SDS011;59999;51.676;22.650;2023-05-23T03:56:26;12.48;;;7.50;;
72125;SDS011;59999;51.676;22.650;2023-05-23T03:58:52;11.30;;;6.33;;
72125;SDS011;59999;51.676;22.650;2023-05-23T04:01:18;12.65;;;7.18;;
72125;SDS011;59999;51.676;22.650;2023-05-23T04:03:44;12.73;;;6.53;;
72125;SDS011;59999;51.676;22.650;2023-05-23T04:06:10;12.13;;;6.38;;
72125;SDS011;59999;51.676;22.650;2023-05-23T04:08:36;11.67;;;7.10;;
72125;SDS011;59999;51.676;22.650;2023-05-23T04:11:02;12.57;;;6.70;;
72125;SDS011;59999;51.676;22.650;2023-05-23T04:13:28;12.43;;;6.85;;
72125;SDS011;59999;51.676;22.650;2023-05-23T04:15:55;12.00;;;6.03;;
72125;SDS011;59999;51.676;22.650;2023-05-23T04:18:22;11.67;;;6.17;;
72125;SDS011;59999;51.676;22.650;2023-05-23T04:20:48;11.63;;;6.55;;
72125;SDS011;59999;51.676;22.650;2023-05-23T04:23:14;12.07;;;6.90;;
72125;SDS011;59999;51.676;22.650;2023-05-23T04:25:40;11.82;;;6.32;;
72125;SDS011;59999;51.676;22.650;2023-05-23T04:28:06;11.45;;;6.05;;
72125;SDS011;59999;51.676;22.650;2023-05-23T04:30:35;11.60;;;6.20;;
72125;SDS011;59999;51.676;22.650;2023-05-23T04:33:01;9.97;;;5.90;;
72125;SDS011;59999;51.676;22.650;2023-05-23T04:35:27;11.65;;;5.70;;
72125;SDS011;59999;51.676;22.650;2023-05-23T04:37:53;8.82;;;5.22;;
72125;SDS011;59999;51.676;22.650;2023-05-23T04:40:21;9.63;;;5.37;;
72125;SDS011;59999;51.676;22.650;2023-05-23T04:42:48;9.43;;;5.60;;
72125;SDS011;59999;51.676;22.650;2023-05-23T04:45:19;11.05;;;6.00;;
72125;SDS011;59999;51.676;22.650;2023-05-23T04:47:44;12.27;;;5.72;;
72125;SDS011;59999;51.676;22.650;2023-05-23T04:50:11;11.13;;;6.03;;
72125;SDS011;59999;51.676;22.650;2023-05-23T04:52:39;11.80;;;5.67;;
72125;SDS011;59999;51.676;22.650;2023-05-23T04:55:06;10.82;;;5.75;;
72125;SDS011;59999;51.676;22.650;2023-05-23T04:57:33;8.85;;;5.07;;
72125;SDS011;59999;51.676;22.650;2023-05-23T05:00:00;10.32;;;5.38;;
72125;SDS011;59999;51.676;22.650;2023-05-23T05:02:26;9.07;;;5.20;;
72125;SDS011;59999;51.676;22.650;2023-05-23T05:04:52;9.15;;;5.30;;
72125;SDS011;59999;51.676;22.650;2023-05-23T05:07:18;8.77;;;5.05;;
72125;SDS011;59999;51.676;22.650;2023-05-23T05:09:45;9.15;;;4.70;;
72125;SDS011;59999;51.676;22.650;2023-05-23T05:12:11;8.93;;;5.33;;
72125;SDS011;59999;51.676;22.650;2023-05-23T05:14:37;9.55;;;5.00;;
72125;SDS011;59999;51.676;22.650;2023-05-23T05:17:02;9.77;;;5.20;;
72125;SDS011;59999;51.676;22.650;2023-05-23T05:19:29;9.48;;;5.28;;
72125;SDS011;59999;51.676;22.650;2023-05-23T05:21:55;9.47;;;4.90;;
72125;SDS011;59999;51.676;22.650;2023-05-23T05:24:22;9.55;;;4.68;;
72125;SDS011;59999;51.676;22.650;2023-05-23T05:26:48;10.35;;;5.18;;
72125;SDS011;59999;51.676;22.650;2023-05-23T05:29:14;9.43;;;5.20;;
72125;SDS011;59999;51.676;22.650;2023-05-23T05:31:40;8.70;;;4.50;;
72125;SDS011;59999;51.676;22.650;2023-05-23T05:34:08;9.73;;;5.03;;
72125;SDS011;59999;51.676;22.650;2023-05-23T05:36:33;8.88;;;5.22;;
72125;SDS011;59999;51.676;22.650;2023-05-23T05:39:00;8.63;;;4.78;;
72125;SDS011;59999;51.676;22.650;2023-05-23T05:41:26;11.00;;;4.87;;
72125;SDS011;59999;51.676;22.650;2023-05-23T05:43:52;11.90;;;4.25;;
72125;SDS011;59999;51.676;22.650;2023-05-23T05:46:18;7.80;;;4.32;;
72125;SDS011;59999;51.676;22.650;2023-05-23T05:48:44;8.15;;;4.78;;
72125;SDS011;59999;51.676;22.650;2023-05-23T05:51:10;10.17;;;4.67;;
72125;SDS011;59999;51.676;22.650;2023-05-23T05:53:37;8.80;;;3.80;;
72125;SDS011;59999;51.676;22.650;2023-05-23T05:56:02;9.85;;;4.55;;
72125;SDS011;59999;51.676;22.650;2023-05-23T05:58:29;11.10;;;4.55;;
72125;SDS011;59999;51.676;22.650;2023-05-23T06:00:55;9.63;;;4.17;;
72125;SDS011;59999;51.676;22.650;2023-05-23T06:03:21;10.38;;;4.43;;
72125;SDS011;59999;51.676;22.650;2023-05-23T06:05:47;8.00;;;4.18;;
72125;SDS011;59999;51.676;22.650;2023-05-23T06:08:13;8.93;;;4.47;;
72125;SDS011;59999;51.676;22.650;2023-05-23T06:10:39;10.43;;;4.50;;
72125;SDS011;59999;51.676;22.650;2023-05-23T06:13:05;10.82;;;4.50;;
72125;SDS011;59999;51.676;22.650;2023-05-23T06:15:31;9.52;;;4.63;;
72125;SDS011;59999;51.676;22.650;2023-05-23T06:17:57;8.35;;;4.35;;
72125;SDS011;59999;51.676;22.650;2023-05-23T06:20:23;7.60;;;3.83;;
72125;SDS011;59999;51.676;22.650;2023-05-23T06:22:49;7.18;;;3.90;;
72125;SDS011;59999;51.676;22.650;2023-05-23T06:25:15;7.30;;;4.10;;
72125;SDS011;59999;51.676;22.650;2023-05-23T06:27:41;8.57;;;3.77;;
72125;SDS011;59999;51.676;22.650;2023-05-23T06:30:07;7.40;;;3.83;;
72125;SDS011;59999;51.676;22.650;2023-05-23T06:32:33;7.60;;;3.95;;
72125;SDS011;59999;51.676;22.650;2023-05-23T06:34:59;7.60;;;4.27;;
72125;SDS011;59999;51.676;22.650;2023-05-23T06:37:25;8.52;;;4.03;;
72125;SDS011;59999;51.676;22.650;2023-05-23T06:39:51;8.43;;;4.40;;
72125;SDS011;59999;51.676;22.650;2023-05-23T06:42:17;7.87;;;3.73;;
72125;SDS011;59999;51.676;22.650;2023-05-23T06:44:42;8.05;;;4.03;;
72125;SDS011;59999;51.676;22.650;2023-05-23T06:47:09;8.90;;;4.10;;
72125;SDS011;59999;51.676;22.650;2023-05-23T06:49:35;7.00;;;3.87;;
72125;SDS011;59999;51.676;22.650;2023-05-23T06:52:02;7.90;;;3.60;;
72125;SDS011;59999;51.676;22.650;2023-05-23T06:54:27;8.63;;;4.20;;
72125;SDS011;59999;51.676;22.650;2023-05-23T06:56:53;10.38;;;3.95;;
72125;SDS011;59999;51.676;22.650;2023-05-23T06:59:19;8.77;;;4.17;;
72125;SDS011;59999;51.676;22.650;2023-05-23T07:01:45;7.95;;;3.88;;
72125;SDS011;59999;51.676;22.650;2023-05-23T07:04:11;9.60;;;3.90;;
72125;SDS011;59999;51.676;22.650;2023-05-23T07:06:38;6.18;;;3.38;;
72125;SDS011;59999;51.676;22.650;2023-05-23T07:09:04;7.63;;;3.77;;
72125;SDS011;59999;51.676;22.650;2023-05-23T07:11:30;9.38;;;4.30;;
72125;SDS011;59999;51.676;22.650;2023-05-23T07:13:56;14.40;;;4.35;;
72125;SDS011;59999;51.676;22.650;2023-05-23T07:16:22;8.45;;;3.72;;
72125;SDS011;59999;51.676;22.650;2023-05-23T07:18:48;8.53;;;3.87;;
72125;SDS011;59999;51.676;22.650;2023-05-23T07:21:14;7.63;;;3.95;;
72125;SDS011;59999;51.676;22.650;2023-05-23T07:23:39;7.15;;;4.10;;
72125;SDS011;59999;51.676;22.650;2023-05-23T07:26:05;10.50;;;3.70;;
72125;SDS011;59999;51.676;22.650;2023-05-23T07:28:34;7.20;;;3.70;;
72125;SDS011;59999;51.676;22.650;2023-05-23T07:31:00;9.65;;;3.80;;
72125;SDS011;59999;51.676;22.650;2023-05-23T07:33:26;9.38;;;3.97;;
72125;SDS011;59999;51.676;22.650;2023-05-23T07:35:52;7.40;;;4.07;;
72125;SDS011;59999;51.676;22.650;2023-05-23T07:38:18;9.75;;;4.10;;
72125;SDS011;59999;51.676;22.650;2023-05-23T07:40:45;8.40;;;4.35;;
72125;SDS011;59999;51.676;22.650;2023-05-23T07:43:11;8.15;;;4.18;;
72125;SDS011;59999;51.676;22.650;2023-05-23T07:45:37;9.93;;;4.80;;
72125;SDS011;59999;51.676;22.650;2023-05-23T07:48:03;6.82;;;3.72;;
72125;SDS011;59999;51.676;22.650;2023-05-23T07:50:29;7.68;;;4.28;;
72125;SDS011;59999;51.676;22.650;2023-05-23T07:52:55;7.15;;;4.13;;
72125;SDS011;59999;51.676;22.650;2023-05-23T07:55:21;7.07;;;3.93;;
72125;SDS011;59999;51.676;22.650;2023-05-23T07:57:48;10.82;;;4.40;;
72125;SDS011;59999;51.676;22.650;2023-05-23T08:00:14;7.85;;;4.20;;
72125;SDS011;59999;51.676;22.650;2023-05-23T08:02:41;7.43;;;3.92;;
72125;SDS011;59999;51.676;22.650;2023-05-23T08:05:07;8.52;;;4.22;;
72125;SDS011;59999;51.676;22.650;2023-05-23T08:07:33;17.63;;;6.00;;
72125;SDS011;59999;51.676;22.650;2023-05-23T08:10:00;8.55;;;3.97;;
72125;SDS011;59999;51.676;22.650;2023-05-23T08:12:25;6.47;;;3.85;;
72125;SDS011;59999;51.676;22.650;2023-05-23T08:14:51;7.97;;;4.00;;
72125;SDS011;59999;51.676;22.650;2023-05-23T08:17:17;7.10;;;3.97;;
72125;SDS011;59999;51.676;22.650;2023-05-23T08:19:43;7.65;;;3.70;;
72125;SDS011;59999;51.676;22.650;2023-05-23T08:22:09;7.05;;;3.88;;
72125;SDS011;59999;51.676;22.650;2023-05-23T08:24:35;7.55;;;4.32;;
72125;SDS011;59999;51.676;22.650;2023-05-23T08:27:01;6.77;;;3.93;;
72125;SDS011;59999;51.676;22.650;2023-05-23T08:29:28;7.78;;;3.90;;
72125;SDS011;59999;51.676;22.650;2023-05-23T08:31:53;7.75;;;3.60;;
72125;SDS011;59999;51.676;22.650;2023-05-23T08:34:19;8.60;;;4.30;;
72125;SDS011;59999;51.676;22.650;2023-05-23T08:36:45;7.25;;;3.42;;
72125;SDS011;59999;51.676;22.650;2023-05-23T08:39:11;6.13;;;3.42;;
72125;SDS011;59999;51.676;22.650;2023-05-23T08:41:37;7.27;;;3.53;;
72125;SDS011;59999;51.676;22.650;2023-05-23T08:44:04;6.10;;;3.40;;
72125;SDS011;59999;51.676;22.650;2023-05-23T08:46:30;7.97;;;3.88;;
72125;SDS011;59999;51.676;22.650;2023-05-23T08:48:58;8.32;;;3.15;;
72125;SDS011;59999;51.676;22.650;2023-05-23T08:51:26;8.35;;;3.80;;
72125;SDS011;59999;51.676;22.650;2023-05-23T08:53:53;7.13;;;3.80;;
72125;SDS011;59999;51.676;22.650;2023-05-23T08:56:20;8.77;;;3.90;;
72125;SDS011;59999;51.676;22.650;2023-05-23T08:58:49;7.57;;;3.95;;
72125;SDS011;59999;51.676;22.650;2023-05-23T09:01:17;7.32;;;4.00;;
72125;SDS011;59999;51.676;22.650;2023-05-23T09:03:45;7.38;;;3.58;;
72125;SDS011;59999;51.676;22.650;2023-05-23T09:06:11;8.97;;;4.13;;
72125;SDS011;59999;51.676;22.650;2023-05-23T09:08:38;7.95;;;3.60;;
72125;SDS011;59999;51.676;22.650;2023-05-23T09:11:04;8.52;;;3.97;;
72125;SDS011;59999;51.676;22.650;2023-05-23T09:13:31;7.78;;;3.78;;
72125;SDS011;59999;51.676;22.650;2023-05-23T09:18:31;8.10;;;3.93;;
72125;SDS011;59999;51.676;22.650;2023-05-23T09:21:00;8.70;;;4.20;;
72125;SDS011;59999;51.676;22.650;2023-05-23T09:23:33;7.50;;;4.20;;
72125;SDS011;59999;51.676;22.650;2023-05-23T09:26:03;8.32;;;4.10;;
72125;SDS011;59999;51.676;22.650;2023-05-23T09:28:31;6.93;;;3.72;;
72125;SDS011;59999;51.676;22.650;2023-05-23T09:30:58;8.10;;;4.23;;
72125;SDS011;59999;51.676;22.650;2023-05-23T09:33:34;7.03;;;3.67;;
72125;SDS011;59999;51.676;22.650;2023-05-23T09:36:02;7.18;;;3.95;;
72125;SDS011;59999;51.676;22.650;2023-05-23T09:38:29;10.27;;;4.20;;
72125;SDS011;59999;51.676;22.650;2023-05-23T09:40:55;8.53;;;3.47;;
72125;SDS011;59999;51.676;22.650;2023-05-23T09:43:22;9.95;;;3.97;;
72125;SDS011;59999;51.676;22.650;2023-05-23T09:45:48;8.35;;;3.95;;
72125;SDS011;59999;51.676;22.650;2023-05-23T09:48:14;10.10;;;3.97;;
72125;SDS011;59999;51.676;22.650;2023-05-23T09:50:40;7.80;;;3.60;;
72125;SDS011;59999;51.676;22.650;2023-05-23T09:53:06;10.23;;;3.95;;
72125;SDS011;59999;51.676;22.650;2023-05-23T09:55:32;8.73;;;4.30;;
72125;SDS011;59999;51.676;22.650;2023-05-23T09:57:58;10.03;;;3.77;;
72125;SDS011;59999;51.676;22.650;2023-05-23T10:00:24;8.55;;;4.15;;
72125;SDS011;59999;51.676;22.650;2023-05-23T10:03:00;8.43;;;4.10;;
72125;SDS011;59999;51.676;22.650;2023-05-23T10:05:46;9.73;;;4.03;;
72125;SDS011;59999;51.676;22.650;2023-05-23T10:08:15;7.25;;;3.83;;
72125;SDS011;59999;51.676;22.650;2023-05-23T10:13:24;7.95;;;4.50;;
72125;SDS011;59999;51.676;22.650;2023-05-23T10:15:58;7.68;;;4.05;;
72125;SDS011;59999;51.676;22.650;2023-05-23T10:18:31;7.55;;;4.00;;
72125;SDS011;59999;51.676;22.650;2023-05-23T10:21:05;7.90;;;4.25;;
72125;SDS011;59999;51.676;22.650;2023-05-23T10:23:36;8.97;;;3.80;;
72125;SDS011;59999;51.676;22.650;2023-05-23T10:26:03;8.40;;;4.10;;
72125;SDS011;59999;51.676;22.650;2023-05-23T10:28:30;8.68;;;4.53;;
72125;SDS011;59999;51.676;22.650;2023-05-23T10:30:57;7.40;;;4.03;;
72125;SDS011;59999;51.676;22.650;2023-05-23T10:33:27;7.93;;;4.03;;
72125;SDS011;59999;51.676;22.650;2023-05-23T10:36:02;8.27;;;3.53;;
72125;SDS011;59999;51.676;22.650;2023-05-23T10:38:41;6.90;;;3.10;;
72125;SDS011;59999;51.676;22.650;2023-05-23T10:41:27;10.93;;;3.63;;
72125;SDS011;59999;51.676;22.650;2023-05-23T10:44:33;8.77;;;3.58;;
72125;SDS011;59999;51.676;22.650;2023-05-23T10:46:56;6.80;;;3.63;;
72125;SDS011;59999;51.676;22.650;2023-05-23T10:52:11;9.88;;;3.83;;
72125;SDS011;59999;51.676;22.650;2023-05-23T10:54:49;6.55;;;3.67;;
72125;SDS011;59999;51.676;22.650;2023-05-23T10:57:18;7.95;;;3.40;;
72125;SDS011;59999;51.676;22.650;2023-05-23T10:59:47;6.85;;;3.80;;
72125;SDS011;59999;51.676;22.650;2023-05-23T11:02:15;7.17;;;3.53;;
72125;SDS011;59999;51.676;22.650;2023-05-23T11:04:44;6.35;;;3.40;;
72125;SDS011;59999;51.676;22.650;2023-05-23T11:07:28;7.68;;;3.60;;
72125;SDS011;59999;51.676;22.650;2023-05-23T11:10:08;7.18;;;3.85;;
72125;SDS011;59999;51.676;22.650;2023-05-23T11:12:42;7.13;;;3.63;;
72125;SDS011;59999;51.676;22.650;2023-05-23T11:17:51;7.80;;;3.67;;
72125;SDS011;59999;51.676;22.650;2023-05-23T11:20:24;8.50;;;3.95;;
72125;SDS011;59999;51.676;22.650;2023-05-23T11:22:53;8.90;;;3.78;;
72125;SDS011;59999;51.676;22.650;2023-05-23T11:28:10;6.40;;;3.27;;
72125;SDS011;59999;51.676;22.650;2023-05-23T11:30:37;6.72;;;3.58;;
72125;SDS011;59999;51.676;22.650;2023-05-23T11:33:07;8.73;;;3.65;;
72125;SDS011;59999;51.676;22.650;2023-05-23T11:35:47;6.90;;;3.78;;
72125;SDS011;59999;51.676;22.650;2023-05-23T11:38:15;7.50;;;3.83;;
72125;SDS011;59999;51.676;22.650;2023-05-23T11:40:43;6.83;;;3.47;;
72125;SDS011;59999;51.676;22.650;2023-05-23T11:43:11;8.63;;;3.72;;
72125;SDS011;59999;51.676;22.650;2023-05-23T11:45:39;8.00;;;4.00;;
72125;SDS011;59999;51.676;22.650;2023-05-23T11:50:58;11.98;;;3.90;;
72125;SDS011;59999;51.676;22.650;2023-05-23T11:53:25;8.60;;;3.43;;
72125;SDS011;59999;51.676;22.650;2023-05-23T11:55:53;7.20;;;3.50;;
72125;SDS011;59999;51.676;22.650;2023-05-23T11:58:25;9.15;;;3.83;;
72125;SDS011;59999;51.676;22.650;2023-05-23T12:03:26;7.05;;;3.55;;
72125;SDS011;59999;51.676;22.650;2023-05-23T12:05:56;6.50;;;3.47;;
72125;SDS011;59999;51.676;22.650;2023-05-23T12:08:22;10.07;;;3.50;;
72125;SDS011;59999;51.676;22.650;2023-05-23T12:10:56;6.55;;;3.35;;
72125;SDS011;59999;51.676;22.650;2023-05-23T12:13:23;6.72;;;3.50;;
72125;SDS011;59999;51.676;22.650;2023-05-23T12:15:56;7.95;;;3.63;;
72125;SDS011;59999;51.676;22.650;2023-05-23T12:18:24;9.40;;;3.63;;
72125;SDS011;59999;51.676;22.650;2023-05-23T12:20:54;7.72;;;3.53;;
72125;SDS011;59999;51.676;22.650;2023-05-23T12:23:24;7.38;;;3.78;;
72125;SDS011;59999;51.676;22.650;2023-05-23T12:25:53;7.78;;;3.28;;
72125;SDS011;59999;51.676;22.650;2023-05-23T12:28:20;9.43;;;3.85;;
72125;SDS011;59999;51.676;22.650;2023-05-23T12:33:45;7.03;;;3.13;;
72125;SDS011;59999;51.676;22.650;2023-05-23T12:36:19;8.63;;;3.28;;
72125;SDS011;59999;51.676;22.650;2023-05-23T12:38:47;9.10;;;3.38;;
72125;SDS011;59999;51.676;22.650;2023-05-23T12:41:17;6.28;;;3.40;;
72125;SDS011;59999;51.676;22.650;2023-05-23T12:43:50;5.53;;;3.10;;
72125;SDS011;59999;51.676;22.650;2023-05-23T12:46:21;7.40;;;3.28;;
72125;SDS011;59999;51.676;22.650;2023-05-23T12:48:48;6.78;;;3.67;;
72125;SDS011;59999;51.676;22.650;2023-05-23T12:51:14;7.78;;;3.45;;
72125;SDS011;59999;51.676;22.650;2023-05-23T12:53:40;6.95;;;3.17;;
72125;SDS011;59999;51.676;22.650;2023-05-23T12:56:07;7.63;;;3.20;;
72125;SDS011;59999;51.676;22.650;2023-05-23T12:58:33;7.53;;;3.15;;
72125;SDS011;59999;51.676;22.650;2023-05-23T13:01:00;7.25;;;3.40;;
72125;SDS011;59999;51.676;22.650;2023-05-23T13:03:27;5.65;;;3.00;;
72125;SDS011;59999;51.676;22.650;2023-05-23T13:05:55;5.97;;;3.20;;
72125;SDS011;59999;51.676;22.650;2023-05-23T13:08:22;6.37;;;2.77;;
72125;SDS011;59999;51.676;22.650;2023-05-23T13:10:48;5.70;;;2.97;;
72125;SDS011;59999;51.676;22.650;2023-05-23T13:13:14;5.95;;;3.25;;
72125;SDS011;59999;51.676;22.650;2023-05-23T13:15:41;8.48;;;3.28;;
72125;SDS011;59999;51.676;22.650;2023-05-23T13:18:06;7.07;;;3.23;;
72125;SDS011;59999;51.676;22.650;2023-05-23T13:20:32;7.40;;;3.17;;
72125;SDS011;59999;51.676;22.650;2023-05-23T13:22:59;7.85;;;3.03;;
72125;SDS011;59999;51.676;22.650;2023-05-23T13:25:28;5.63;;;2.92;;
72125;SDS011;59999;51.676;22.650;2023-05-23T13:27:54;6.60;;;2.90;;
72125;SDS011;59999;51.676;22.650;2023-05-23T13:30:20;5.83;;;2.90;;
72125;SDS011;59999;51.676;22.650;2023-05-23T13:32:47;6.90;;;2.90;;
72125;SDS011;59999;51.676;22.650;2023-05-23T13:35:14;9.68;;;3.03;;
72125;SDS011;59999;51.676;22.650;2023-05-23T13:37:40;7.13;;;3.08;;
72125;SDS011;59999;51.676;22.650;2023-05-23T13:40:06;7.63;;;3.05;;
72125;SDS011;59999;51.676;22.650;2023-05-23T13:42:33;7.73;;;3.10;;
72125;SDS011;59999;51.676;22.650;2023-05-23T13:45:00;5.63;;;3.30;;
72125;SDS011;59999;51.676;22.650;2023-05-23T13:47:26;5.43;;;2.90;;
72125;SDS011;59999;51.676;22.650;2023-05-23T13:49:52;5.57;;;2.88;;
72125;SDS011;59999;51.676;22.650;2023-05-23T13:52:17;5.70;;;2.97;;
72125;SDS011;59999;51.676;22.650;2023-05-23T13:54:44;7.15;;;3.10;;
72125;SDS011;59999;51.676;22.650;2023-05-23T13:57:11;6.60;;;3.38;;
72125;SDS011;59999;51.676;22.650;2023-05-23T13:59:37;9.20;;;3.25;;
72125;SDS011;59999;51.676;22.650;2023-05-23T14:02:03;7.13;;;3.17;;
72125;SDS011;59999;51.676;22.650;2023-05-23T14:04:29;6.45;;;3.08;;
72125;SDS011;59999;51.676;22.650;2023-05-23T14:06:55;5.70;;;3.28;;
72125;SDS011;59999;51.676;22.650;2023-05-23T14:09:21;8.40;;;3.30;;
72125;SDS011;59999;51.676;22.650;2023-05-23T14:11:47;5.60;;;3.50;;
72125;SDS011;59999;51.676;22.650;2023-05-23T14:14:13;9.15;;;3.33;;
72125;SDS011;59999;51.676;22.650;2023-05-23T14:16:39;5.88;;;3.00;;
72125;SDS011;59999;51.676;22.650;2023-05-23T14:19:05;6.95;;;3.65;;
72125;SDS011;59999;51.676;22.650;2023-05-23T14:21:32;6.07;;;3.03;;
72125;SDS011;59999;51.676;22.650;2023-05-23T14:23:58;8.45;;;3.53;;
72125;SDS011;59999;51.676;22.650;2023-05-23T14:26:24;6.90;;;3.30;;
72125;SDS011;59999;51.676;22.650;2023-05-23T14:28:51;5.53;;;2.90;;
72125;SDS011;59999;51.676;22.650;2023-05-23T14:31:16;8.13;;;3.08;;
72125;SDS011;59999;51.676;22.650;2023-05-23T14:33:42;6.38;;;3.35;;
72125;SDS011;59999;51.676;22.650;2023-05-23T14:36:08;6.30;;;3.10;;
72125;SDS011;59999;51.676;22.650;2023-05-23T14:38:34;6.15;;;3.30;;
72125;SDS011;59999;51.676;22.650;2023-05-23T14:41:00;6.03;;;3.25;;
72125;SDS011;59999;51.676;22.650;2023-05-23T14:43:26;10.80;;;3.70;;
72125;SDS011;59999;51.676;22.650;2023-05-23T14:45:52;6.80;;;3.30;;
72125;SDS011;59999;51.676;22.650;2023-05-23T14:48:18;8.82;;;3.90;;
72125;SDS011;59999;51.676;22.650;2023-05-23T14:50:44;8.02;;;4.78;;
72125;SDS011;59999;51.676;22.650;2023-05-23T14:53:10;5.80;;;3.10;;
72125;SDS011;59999;51.676;22.650;2023-05-23T14:55:36;6.38;;;3.60;;
72125;SDS011;59999;51.676;22.650;2023-05-23T14:58:02;6.95;;;3.40;;